Time;durP1;ratioP1;P1;durP2;ratioP2;P2;SDS_P1;SDS_P2;PMS_P1;PMS_P2;Temp;Humidity;BMP_temperature;BMP_pressure;BME280_temperature;BME280_humidity;BME280_pressure;Samples;Min_cycle;Max_cycle;Signal;HPM_P1;HPM_P2
2021/01/14 00:01:14;;;;;;;;;;;;;;;;;;5055483;28;1961;-75
2021/01/14 00:03:40;;;;;;;;;;;;;;;;;;5057555;28;899;-78
2021/01/14 00:06:05;;;;;;;;;;;;;;;;;;5057461;28;1409;-80
2021/01/14 00:08:30;;;;;;;;;;;;;;;;;;5058244;28;916;-80
2021/01/14 00:10:56;;;;;;;;;;;;;;;;;;5055804;28;1041;-77
2021/01/14 00:13:21;;;;;;;;;;;;;;;;;;5056655;28;809;-78
2021/01/14 00:15:46;;;;;;;;;;;;;;;;;;5055514;28;1365;-78
2021/01/14 00:18:12;;;;;;;;;;;;;;;;;;5057945;28;825;-75
2021/01/14 00:20:37;;;;;;;;;;;;;;;;;;5058627;28;936;-78
2021/01/14 00:23:03;;;;;;;;;;;;;;;;;;5058478;28;1932;-75
2021/01/14 00:25:28;;;;;;;;;;;;;;;;;;5056668;28;1435;-77
2021/01/14 00:27:53;;;;;;;;;;;;;;;;;;5055850;28;1214;-77
2021/01/14 00:30:24;;;;;;;;;;;;;;;;;;5055443;28;876;-78
2021/01/14 00:32:49;;;;;;;;;;;;;;;;;;5056241;28;892;-77
2021/01/14 00:35:15;;;;;;;;;;;;;;;;;;5056299;28;1364;-79
2021/01/14 00:37:50;;;;;;;;;;;;;;;;;;5056213;28;778;-75
2021/01/14 00:40:16;;;;;;;;;;;;;;;;;;5054372;28;1235;-78
2021/01/14 00:42:41;;;;;;;;;;;;;;;;;;5038574;28;1941;-77
2021/01/14 00:45:06;;;;;;;;;;;;;;;;;;5055144;28;1467;-77
2021/01/14 00:47:35;;;;;;;;;;;;;;;;;;5055026;28;1933;-76
2021/01/14 00:50:00;;;;;;;;;;;;;;;;;;5055671;28;1241;-76
2021/01/14 00:52:25;;;;;;;;;;;;;;;;;;5056325;28;849;-78
2021/01/14 00:54:51;;;;;;;;;;;;;;;;;;5056923;28;1317;-76
2021/01/14 00:57:16;;;;;;;;;;;;;;;;;;5056850;28;979;-74
2021/01/14 00:59:41;;;;;;;;;;;;;;;;;;5055599;28;1245;-80
2021/01/14 01:02:06;;;;;;;;;;;;;;;;;;5054948;28;1898;-79
2021/01/14 01:04:32;;;;;;;;;;;;;;;;;;5057383;28;1373;-78
2021/01/14 01:06:57;;;;;;;;;;;;;;;;;;5057377;28;904;-75
2021/01/14 01:09:23;;;;;;;;;;;;;;;;;;5055913;28;1242;-76
2021/01/14 01:11:48;;;;;;;;;;;;;;;;;;5055321;28;876;-78
2021/01/14 01:14:13;;;;;;;;;;;;;;;;;;5054047;28;1219;-80
2021/01/14 01:16:39;;;;;;;;;;;;;;;;;;5058327;28;1406;-78
2021/01/14 01:19:04;;;;;;;;;;;;;;;;;;5059044;28;975;-81
2021/01/14 01:21:29;;;;;;;;;;;;;;;;;;5058973;28;1964;-79
2021/01/14 01:23:54;;;;;;;;;;;;;;;;;;5057619;28;1255;-78
2021/01/14 01:26:20;;;;;;;;;;;;;;;;;;5058876;28;1401;-74
2021/01/14 01:28:46;;;;;;;;;;;;;;;;;;5058981;28;885;-80
2021/01/14 01:31:11;;;;;;;;;;;;;;;;;;5057205;28;1672;-79
2021/01/14 01:33:37;;;;;;;;;;;;;;;;;;5059778;28;864;-79
2021/01/14 01:36:03;;;;;;;;;;;;;;;;;;5059763;28;1385;-76
2021/01/14 01:38:28;;;;;;;;;;;;;;;;;;5059477;28;825;-77
2021/01/14 01:40:54;;;;;;;;;;;;;;;;;;5059582;28;900;-79
2021/01/14 01:43:20;;;;;;;;;;;;;;;;;;5057887;28;1894;-79
2021/01/14 01:45:45;;;;;;;;;;;;;;;;;;5058426;28;1435;-78
2021/01/14 01:48:11;;;;;;;;;;;;;;;;;;5059636;28;813;-77
2021/01/14 01:50:36;;;;;;;;;;;;;;;;;;5059192;28;916;-76
2021/01/14 01:53:01;;;;;;;;;;;;;;;;;;5059523;28;904;-77
2021/01/14 01:55:26;;;;;;;;;;;;;;;;;;5059154;28;1294;-80
2021/01/14 01:57:51;;;;;;;;;;;;;;;;;;5058685;28;893;-77
2021/01/14 02:00:17;;;;;;;;;;;;;;;;;;5058075;28;1280;-79
2021/01/14 02:02:42;;;;;;;;;;;;;;;;;;5057996;28;1941;-76
2021/01/14 02:05:09;;;;;;;;;;;;;;;;;;5059500;28;1377;-75
2021/01/14 02:07:42;;;;;;;;;;;;;;;;;;5058833;28;880;-76
2021/01/14 02:10:09;;;;;;;;;;;;;;;;;;5057546;28;1377;-79
2021/01/14 02:12:41;;;;;;;;;;;;;;;;;;5057324;28;1821;-80
2021/01/14 02:15:07;;;;;;;;;;;;;;;;;;5057322;28;1282;-79
2021/01/14 02:17:33;;;;;;;;;;;;;;;;;;5058246;28;897;-78
2021/01/14 02:20:01;;;;;;;;;;;;;;;;;;5057402;28;951;-80
2021/01/14 02:22:37;;;;;;;;;;;;;;;;;;5057607;28;1898;-75
2021/01/14 02:25:16;;;;;;;;;;;;;;;;;;5058818;28;1298;-75
2021/01/14 02:27:43;;;;;;;;;;;;;;;;;;5058855;28;766;-77
2021/01/14 02:30:09;;;;;;;;;;;;;;;;;;5058474;28;817;-79
2021/01/14 02:32:35;;;;;;;;;;;;;;;;;;5058771;28;912;-78
2021/01/14 02:35:00;;;;;;;;;;;;;;;;;;5056943;28;1285;-78
2021/01/14 02:37:25;;;;;;;;;;;;;;;;;;5057021;28;1143;-77
2021/01/14 02:39:50;;;;;;;;;;;;;;;;;;5057295;28;960;-74
2021/01/14 02:42:16;;;;;;;;;;;;;;;;;;5058122;28;1903;-80
2021/01/14 02:44:41;;;;;;;;;;;;;;;;;;5058000;28;1302;-77
2021/01/14 02:47:08;;;;;;;;;;;;;;;;;;5056783;28;809;-77
2021/01/14 02:49:37;;;;;;;;;;;;;;;;;;5057769;28;801;-78
2021/01/14 02:52:03;;;;;;;;;;;;;;;;;;5057564;28;896;-77
2021/01/14 02:54:29;;;;;;;;;;;;;;;;;;5057620;28;1432;-81
2021/01/14 02:56:55;;;;;;;;;;;;;;;;;;5055847;28;1055;-77
2021/01/14 02:59:20;;;;;;;;;;;;;;;;;;5055543;28;849;-80
2021/01/14 03:01:45;;;;;;;;;;;;;;;;;;5055086;28;1879;-75
2021/01/14 03:04:11;;;;;;;;;;;;;;;;;;5056765;28;841;-79
2021/01/14 03:06:36;;;;;;;;;;;;;;;;;;5055108;28;1353;-75
2021/01/14 03:09:02;;;;;;;;;;;;;;;;;;5056301;28;833;-76
2021/01/14 03:11:33;;;;;;;;;;;;;;;;;;5055608;28;1127;-75
2021/01/14 03:13:59;;;;;;;;;;;;;;;;;;5056875;28;1015;-78
2021/01/14 03:16:24;;;;;;;;;;;;;;;;;;5055776;28;1309;-78
2021/01/14 03:18:50;;;;;;;;;;;;;;;;;;5054938;28;1203;-79
2021/01/14 03:21:25;;;;;;;;;;;;;;;;;;5055632;28;1910;-79
2021/01/14 03:23:52;;;;;;;;;;;;;;;;;;5055901;28;1060;-79
2021/01/14 03:26:17;;;;;;;;;;;;;;;;;;5054743;28;1433;-78
2021/01/14 03:28:43;;;;;;;;;;;;;;;;;;5055923;28;944;-78
2021/01/14 03:31:12;;;;;;;;;;;;;;;;;;5054217;28;1408;-75
2021/01/14 03:33:38;;;;;;;;;;;;;;;;;;5055530;28;796;-78
2021/01/14 03:36:06;;;;;;;;;;;;;;;;;;5055295;28;1384;-76
2021/01/14 03:38:32;;;;;;;;;;;;;;;;;;5054658;28;907;-78
2021/01/14 03:40:58;;;;;;;;;;;;;;;;;;5054992;28;817;-81
2021/01/14 03:43:23;;;;;;;;;;;;;;;;;;5054704;28;1891;-77
2021/01/14 03:45:48;;;;;;;;;;;;;;;;;;5054705;28;1385;-78
2021/01/14 03:48:13;;;;;;;;;;;;;;;;;;5053932;28;1503;-79
2021/01/14 03:50:39;;;;;;;;;;;;;;;;;;5054562;28;884;-79
2021/01/14 03:53:04;;;;;;;;;;;;;;;;;;5053689;28;897;-79
2021/01/14 03:55:29;;;;;;;;;;;;;;;;;;5054755;28;1313;-76
2021/01/14 03:57:54;;;;;;;;;;;;;;;;;;5054342;28;916;-82
2021/01/14 04:00:20;;;;;;;;;;;;;;;;;;5054389;28;923;-80
2021/01/14 04:02:45;;;;;;;;;;;;;;;;;;5054455;28;1917;-78
2021/01/14 04:05:11;;;;;;;;;;;;;;;;;;5054459;28;1396;-77
2021/01/14 04:07:36;;;;;;;;;;;;;;;;;;5053198;28;1124;-78
2021/01/14 04:10:02;;;;;;;;;;;;;;;;;;5054173;28;920;-77
2021/01/14 04:12:28;;;;;;;;;;;;;;;;;;5054345;28;833;-79
2021/01/14 04:14:53;;;;;;;;;;;;;;;;;;5053750;28;1289;-78
2021/01/14 04:17:18;;;;;;;;;;;;;;;;;;5054136;28;1009;-79
2021/01/14 04:19:44;;;;;;;;;;;;;;;;;;5054153;28;874;-76
2021/01/14 04:22:09;;;;;;;;;;;;;;;;;;5054260;28;1984;-78
2021/01/14 04:24:36;;;;;;;;;;;;;;;;;;5054155;28;1298;-76
2021/01/14 04:27:03;;;;;;;;;;;;;;;;;;5053803;28;853;-75
2021/01/14 04:29:28;;;;;;;;;;;;;;;;;;5052796;28;1468;-75
2021/01/14 04:31:54;;;;;;;;;;;;;;;;;;5053913;28;900;-75
2021/01/14 04:34:19;;;;;;;;;;;;;;;;;;5053011;28;1223;-74
2021/01/14 04:36:44;;;;;;;;;;;;;;;;;;5053975;28;1325;-75
2021/01/14 04:39:09;;;;;;;;;;;;;;;;;;5053922;28;1011;-74
2021/01/14 04:41:45;;;;;;;;;;;;;;;;;;5053862;28;1965;-75
2021/01/14 04:44:10;;;;;;;;;;;;;;;;;;5053726;28;1082;-73
2021/01/14 04:46:36;;;;;;;;;;;;;;;;;;5053897;28;1369;-74
2021/01/14 04:49:02;;;;;;;;;;;;;;;;;;5054025;28;841;-75
2021/01/14 04:51:28;;;;;;;;;;;;;;;;;;5056964;28;1008;-74
2021/01/14 04:54:00;;;;;;;;;;;;;;;;;;5057716;28;1035;-73
2021/01/14 04:56:29;;;;;;;;;;;;;;;;;;5056752;28;1681;-74
2021/01/14 04:58:57;;;;;;;;;;;;;;;;;;5057663;28;1028;-74
2021/01/14 05:01:23;;;;;;;;;;;;;;;;;;5057545;28;1969;-73
2021/01/14 05:03:49;;;;;;;;;;;;;;;;;;5057679;28;921;-73
2021/01/14 05:06:17;;;;;;;;;;;;;;;;;;5056354;28;1655;-74
2021/01/14 05:08:43;;;;;;;;;;;;;;;;;;5057948;28;900;-74
2021/01/14 05:11:11;;;;;;;;;;;;;;;;;;5055972;28;1347;-74
2021/01/14 05:13:38;;;;;;;;;;;;;;;;;;5057544;28;805;-74
2021/01/14 05:16:04;;;;;;;;;;;;;;;;;;5057218;28;1400;-73
2021/01/14 05:18:29;;;;;;;;;;;;;;;;;;5056234;28;1677;-73
2021/01/14 05:20:59;;;;;;;;;;;;;;;;;;5057189;28;813;-73
2021/01/14 05:23:24;;;;;;;;;;;;;;;;;;5057147;28;1898;-75
2021/01/14 05:25:52;;;;;;;;;;;;;;;;;;5057071;28;1393;-74
2021/01/14 05:28:19;;;;;;;;;;;;;;;;;;5055975;28;1555;-75
2021/01/14 05:30:44;;;;;;;;;;;;;;;;;;5055681;28;1340;-74
2021/01/14 05:33:17;;;;;;;;;;;;;;;;;;5057109;28;861;-75
2021/01/14 05:35:49;;;;;;;;;;;;;;;;;;5055993;28;1290;-75
2021/01/14 05:38:27;;;;;;;;;;;;;;;;;;5055754;28;1385;-75
2021/01/14 05:43:53;;;;;;;;;;;;;;;;;;5057227;28;787;-74
2021/01/14 05:46:20;;;;;;;;;;;;;;;;;;5055475;28;1357;-76
2021/01/14 05:48:46;;;;;;;;;;;;;;;;;;5056854;28;887;-76
2021/01/14 05:51:15;;;;;;;;;;;;;;;;;;5056310;28;837;-76
2021/01/14 05:53:53;;;;;;;;;;;;;;;;;;5056730;28;896;-75
2021/01/14 05:56:24;;;;;;;;;;;;;;;;;;5055283;28;1431;-74
2021/01/14 05:58:52;;;;;;;;;;;;;;;;;;5056842;28;975;-76
2021/01/14 06:01:18;;;;;;;;;;;;;;;;;;5055681;28;1957;-75
2021/01/14 06:03:43;;;;;;;;;;;;;;;;;;5056544;28;933;-76
2021/01/14 06:06:14;;;;;;;;;;;;;;;;;;5056505;28;1302;-75
2021/01/14 06:08:40;;;;;;;;;;;;;;;;;;5056198;28;805;-75
2021/01/14 06:11:16;;;;;;;;;;;;;;;;;;5056250;28;853;-75
2021/01/14 06:13:41;;;;;;;;;;;;;;;;;;5056340;28;877;-75
2021/01/14 06:16:07;;;;;;;;;;;;;;;;;;5054821;28;1298;-74
2021/01/14 06:18:32;;;;;;;;;;;;;;;;;;5056192;28;793;-75
2021/01/14 06:20:58;;;;;;;;;;;;;;;;;;5056081;28;809;-74
2021/01/14 06:23:23;;;;;;;;;;;;;;;;;;5056207;28;1961;-75
2021/01/14 06:25:49;;;;;;;;;;;;;;;;;;5055818;28;1989;-76
2021/01/14 06:28:15;;;;;;;;;;;;;;;;;;5056112;28;1325;-78
2021/01/14 06:30:57;;;;;;;;;;;;;;;;;;5055823;28;901;-76
2021/01/14 06:33:23;;;;;;;;;;;;;;;;;;5054831;28;943;-78
2021/01/14 06:35:49;;;;;;;;;;;;;;;;;;5055802;28;1388;-76
2021/01/14 06:38:20;;;;;;;;;;;;;;;;;;5054657;28;1222;-76
2021/01/14 06:40:48;;;;;;;;;;;;;;;;;;5054603;28;1124;-78
2021/01/14 06:43:16;;;;;;;;;;;;;;;;;;5037838;28;1890;-80
2021/01/14 06:45:45;;;;;;;;;;;;;;;;;;5055898;28;1381;-78
2021/01/14 06:48:14;;;;;;;;;;;;;;;;;;5055832;28;841;-80
2021/01/14 06:50:47;;;;;;;;;;;;;;;;;;5054355;28;849;-77
2021/01/14 06:53:13;;;;;;;;;;;;;;;;;;5055845;28;924;-77
2021/01/14 06:55:38;;;;;;;;;;;;;;;;;;5055755;28;1432;-77
2021/01/14 06:58:09;;;;;;;;;;;;;;;;;;5054388;28;819;-78
2021/01/14 07:00:45;;;;;;;;;;;;;;;;;;5055659;28;904;-80
2021/01/14 07:03:17;;;;;;;;;;;;;;;;;;5054080;28;1898;-77
2021/01/14 07:05:58;;;;;;;;;;;;;;;;;;5054185;28;1470;-78
2021/01/14 07:08:32;;;;;;;;;;;;;;;;;;5055802;28;841;-78
2021/01/14 07:11:11;;;;;;;;;;;;;;;;;;5054043;28;1445;-77
2021/01/14 07:13:44;;;;;;;;;;;;;;;;;;5053876;28;1450;-76
2021/01/14 07:16:10;;;;;;;;;;;;;;;;;;5055527;28;1372;-77
2021/01/14 07:18:36;;;;;;;;;;;;;;;;;;5055462;28;886;-80
2021/01/14 07:21:02;;;;;;;;;;;;;;;;;;5054096;28;1809;-75
2021/01/14 07:23:30;;;;;;;;;;;;;;;;;;5054374;28;1898;-78
2021/01/14 07:25:56;;;;;;;;;;;;;;;;;;5055055;28;1365;-78
2021/01/14 07:28:22;;;;;;;;;;;;;;;;;;5054009;28;1277;-77
2021/01/14 07:30:47;;;;;;;;;;;;;;;;;;5054960;28;950;-79
2021/01/14 07:33:12;;;;;;;;;;;;;;;;;;5053509;28;1261;-76
2021/01/14 07:35:42;;;;;;;;;;;;;;;;;;5053651;28;1337;-75
2021/01/14 07:38:08;;;;;;;;;;;;;;;;;;5054948;28;930;-76
2021/01/14 07:40:35;;;;;;;;;;;;;;;;;;5054568;28;845;-77
2021/01/14 07:43:02;;;;;;;;;;;;;;;;;;5054757;28;1897;-75
2021/01/14 07:45:28;;;;;;;;;;;;;;;;;;5054589;28;1267;-80
2021/01/14 07:47:53;;;;;;;;;;;;;;;;;;5054624;28;991;-76
2021/01/14 07:50:28;;;;;;;;;;;;;;;;;;5054531;28;840;-74
2021/01/14 07:52:54;;;;;;;;;;;;;;;;;;5054344;28;739;-79
2021/01/14 07:55:27;;;;;;;;;;;;;;;;;;5054317;28;1341;-74
2021/01/14 07:58:21;;;;;;;;;;;;;;;;;;5053177;28;1334;-77
2021/01/14 08:01:00;;;;;;;;;;;;;;;;;;5055640;28;1238;-76
2021/01/14 08:03:36;;;;;;;;;;;;;;;;;;5054478;28;1953;-77
2021/01/14 08:06:24;;;;;;;;;;;;;;;;;;5052978;28;1364;-78
2021/01/14 08:08:57;;;;;;;;;;;;;;;;;;5054648;28;927;-76
2021/01/14 08:11:25;;;;;;;;;;;;;;;;;;5052889;28;1544;-76
2021/01/14 08:14:06;;;;;;;;;;;;;;;;;;5054533;28;798;-77
2021/01/14 08:16:34;;;;;;;;;;;;;;;;;;5052706;28;1337;-78
2021/01/14 08:19:14;;;;;;;;;;;;;;;;;;5054642;28;856;-76
2021/01/14 08:21:40;;;;;;;;;;;;;;;;;;5053786;28;1955;-75
2021/01/14 08:24:05;;;;;;;;;;;;;;;;;;5055980;28;899;-77
2021/01/14 08:26:49;;;;;;;;;;;;;;;;;;5059403;28;2142;-76
2021/01/14 08:29:26;;;;;;;;;;;;;;;;;;5061379;28;960;-78
2021/01/14 08:31:52;;;;;;;;;;;;;;;;;;5060691;28;866;-78
2021/01/14 08:34:19;;;;;;;;;;;;;;;;;;5059468;28;1209;-75
2021/01/14 08:36:45;;;;;;;;;;;;;;;;;;5060722;28;1401;-78
2021/01/14 08:39:10;;;;;;;;;;;;;;;;;;5059508;28;1326;-76
2021/01/14 08:41:36;;;;;;;;;;;;;;;;;;5060368;28;1886;-78
2021/01/14 08:44:02;;;;;;;;;;;;;;;;;;5060395;28;853;-80
2021/01/14 08:46:37;;;;;;;;;;;;;;;;;;5060594;28;1400;-78
2021/01/14 08:49:12;;;;;;;;;;;;;;;;;;5060955;28;845;-78
2021/01/14 08:51:39;;;;;;;;;;;;;;;;;;5059317;28;1238;-77
2021/01/14 08:54:05;;;;;;;;;;;;;;;;;;5060870;28;860;-74
2021/01/14 08:56:30;;;;;;;;;;;;;;;;;;5060602;28;1302;-78
2021/01/14 08:58:58;;;;;;;;;;;;;;;;;;5059239;28;1504;-78
2021/01/14 09:01:26;;;;;;;;;;;;;;;;;;5060334;28;1960;-77
2021/01/14 09:03:56;;;;;;;;;;;;;;;;;;5060531;28;857;-78
2021/01/14 09:06:34;;;;;;;;;;;;;;;;;;5060672;28;1263;-75
2021/01/14 09:08:59;;;;;;;;;;;;;;;;;;5060462;28;933;-75
2021/01/14 09:11:25;;;;;;;;;;;;;;;;;;5060552;28;852;-75
2021/01/14 09:14:04;;;;;;;;;;;;;;;;;;5060444;28;888;-78
2021/01/14 09:16:29;;;;;;;;;;;;;;;;;;5059351;28;1382;-80
2021/01/14 09:18:55;;;;;;;;;;;;;;;;;;5060612;28;905;-76
2021/01/14 09:21:20;;;;;;;;;;;;;;;;;;5059162;28;1965;-78
2021/01/14 09:23:45;;;;;;;;;;;;;;;;;;5059677;28;1318;-75
2021/01/14 09:26:14;;;;;;;;;;;;;;;;;;5060274;28;1338;-77
2021/01/14 09:28:41;;;;;;;;;;;;;;;;;;5060939;28;789;-78
2021/01/14 09:31:08;;;;;;;;;;;;;;;;;;5060315;28;841;-78
2021/01/14 09:33:34;;;;;;;;;;;;;;;;;;5058938;28;1460;-76
2021/01/14 09:36:07;;;;;;;;;;;;;;;;;;5058017;28;1345;-77
2021/01/14 09:38:40;;;;;;;;;;;;;;;;;;5057278;28;900;-77
2021/01/14 09:41:05;;;;;;;;;;;;;;;;;;5057042;28;842;-76
2021/01/14 09:43:31;;;;;;;;;;;;;;;;;;5055928;28;1961;-78
2021/01/14 09:45:57;;;;;;;;;;;;;;;;;;5055781;28;1314;-75
2021/01/14 09:48:22;;;;;;;;;;;;;;;;;;5056129;28;1503;-75
2021/01/14 09:50:48;;;;;;;;;;;;;;;;;;5055862;28;1246;-79
2021/01/14 09:53:13;;;;;;;;;;;;;;;;;;5055814;28;932;-77
2021/01/14 09:55:40;;;;;;;;;;;;;;;;;;5055515;28;1428;-76
2021/01/14 09:58:06;;;;;;;;;;;;;;;;;;5056885;28;880;-73
2021/01/14 10:00:31;;;;;;;;;;;;;;;;;;5056999;28;810;-76
2021/01/14 10:03:08;;;;;;;;;;;;;;;;;;5055500;28;1965;-77
2021/01/14 10:05:34;;;;;;;;;;;;;;;;;;5057036;28;1302;-79
2021/01/14 10:08:02;;;;;;;;;;;;;;;;;;5057041;28;818;-79
2021/01/14 10:10:29;;;;;;;;;;;;;;;;;;5057618;28;829;-78
2021/01/14 10:12:55;;;;;;;;;;;;;;;;;;5057502;28;857;-79
2021/01/14 10:15:20;;;;;;;;;;;;;;;;;;5055028;28;1374;-74
2021/01/14 10:17:45;;;;;;;;;;;;;;;;;;5055373;28;1452;-80
2021/01/14 10:20:15;;;;;;;;;;;;;;;;;;5056455;28;913;-77
2021/01/14 10:22:47;;;;;;;;;;;;;;;;;;5055213;28;1878;-78
2021/01/14 10:25:12;;;;;;;;;;;;;;;;;;5056239;28;1448;-80
2021/01/14 10:27:38;;;;;;;;;;;;;;;;;;5054684;28;1398;-78
2021/01/14 10:30:16;;;;;;;;;;;;;;;;;;5056106;28;817;-78
2021/01/14 10:32:41;;;;;;;;;;;;;;;;;;5054861;28;850;-79
2021/01/14 10:35:06;;;;;;;;;;;;;;;;;;5056151;28;1298;-77
2021/01/14 10:37:35;;;;;;;;;;;;;;;;;;5054961;28;2348;-80
2021/01/14 10:40:01;;;;;;;;;;;;;;;;;;5055976;28;896;-75
2021/01/14 10:42:27;;;;;;;;;;;;;;;;;;5054502;28;1969;-81
2021/01/14 10:44:52;;;;;;;;;;;;;;;;;;5055770;28;1381;-77
2021/01/14 10:47:19;;;;;;;;;;;;;;;;;;5053631;28;1247;-77
2021/01/14 10:49:44;;;;;;;;;;;;;;;;;;5055277;28;1082;-81
2021/01/14 10:52:10;;;;;;;;;;;;;;;;;;5055674;28;825;-81
2021/01/14 10:54:35;;;;;;;;;;;;;;;;;;5054586;28;1458;-78
2021/01/14 10:57:00;;;;;;;;;;;;;;;;;;5055800;28;1033;-79
2021/01/14 10:59:25;;;;;;;;;;;;;;;;;;5054693;28;1145;-77
2021/01/14 11:02:04;;;;;;;;;;;;;;;;;;5055147;28;1957;-78
2021/01/14 11:04:29;;;;;;;;;;;;;;;;;;5055542;28;1286;-77
2021/01/14 11:06:54;;;;;;;;;;;;;;;;;;5055520;28;852;-79
2021/01/14 11:09:19;;;;;;;;;;;;;;;;;;5055888;28;1940;-79
2021/01/14 11:11:45;;;;;;;;;;;;;;;;;;5054020;28;868;-78
2021/01/14 11:14:14;;;;;;;;;;;;;;;;;;5055054;28;813;-80
2021/01/14 11:16:39;;;;;;;;;;;;;;;;;;5055055;28;1452;-78
2021/01/14 11:19:05;;;;;;;;;;;;;;;;;;5053943;28;1254;-79
2021/01/14 11:21:34;;;;;;;;;;;;;;;;;;5058517;28;1909;-78
2021/01/14 11:23:59;;;;;;;;;;;;;;;;;;5054969;28;786;-79
2021/01/14 11:26:25;;;;;;;;;;;;;;;;;;5055604;28;1294;-80
2021/01/14 11:28:51;;;;;;;;;;;;;;;;;;5055557;28;892;-80
2021/01/14 11:31:20;;;;;;;;;;;;;;;;;;5055976;28;809;-79
2021/01/14 11:33:45;;;;;;;;;;;;;;;;;;5055333;28;885;-80
2021/01/14 11:36:12;;;;;;;;;;;;;;;;;;5053517;28;1540;-80
2021/01/14 11:38:37;;;;;;;;;;;;;;;;;;5054813;28;896;-80
2021/01/14 11:41:03;;;;;;;;;;;;;;;;;;5054492;28;901;-79
2021/01/14 11:43:28;;;;;;;;;;;;;;;;;;5054603;28;1947;-78
2021/01/14 11:45:54;;;;;;;;;;;;;;;;;;5054581;28;1278;-77
2021/01/14 11:48:19;;;;;;;;;;;;;;;;;;5053218;28;1474;-79
2021/01/14 11:50:44;;;;;;;;;;;;;;;;;;5053145;28;754;-80
2021/01/14 11:53:09;;;;;;;;;;;;;;;;;;5053171;28;900;-78
2021/01/14 11:55:35;;;;;;;;;;;;;;;;;;5053085;28;1440;-77
2021/01/14 11:58:01;;;;;;;;;;;;;;;;;;5052905;28;1660;-78
2021/01/14 12:00:26;;;;;;;;;;;;;;;;;;5054264;28;864;-80
2021/01/14 12:02:54;;;;;;;;;;;;;;;;;;5053283;28;1894;-77
2021/01/14 12:05:20;;;;;;;;;;;;;;;;;;5054123;28;1334;-79
2021/01/14 12:07:45;;;;;;;;;;;;;;;;;;5054235;28;952;-79
2021/01/14 12:10:10;;;;;;;;;;;;;;;;;;5054243;28;960;-78
2021/01/14 12:12:35;;;;;;;;;;;;;;;;;;5053102;28;1433;-78
2021/01/14 12:15:02;;;;;;;;;;;;;;;;;;5054253;28;1369;-79
2021/01/14 12:17:27;;;;;;;;;;;;;;;;;;5054083;28;861;-80
2021/01/14 12:19:53;;;;;;;;;;;;;;;;;;5054004;28;830;-77
2021/01/14 12:22:18;;;;;;;;;;;;;;;;;;5053808;28;1963;-78
2021/01/14 12:24:43;;;;;;;;;;;;;;;;;;5053926;28;1339;-80
2021/01/14 12:27:08;;;;;;;;;;;;;;;;;;5054115;28;956;-80
2021/01/14 12:29:35;;;;;;;;;;;;;;;;;;5053960;28;929;-77
2021/01/14 12:32:02;;;;;;;;;;;;;;;;;;5054023;28;829;-77
2021/01/14 12:34:27;;;;;;;;;;;;;;;;;;5053811;28;1361;-78
2021/01/14 12:36:53;;;;;;;;;;;;;;;;;;5054049;28;897;-80
2021/01/14 12:39:19;;;;;;;;;;;;;;;;;;5053881;28;828;-78
2021/01/14 12:41:44;;;;;;;;;;;;;;;;;;5053704;28;1961;-76
2021/01/14 12:44:09;;;;;;;;;;;;;;;;;;5052662;28;1246;-78
2021/01/14 12:46:41;;;;;;;;;;;;;;;;;;5052458;28;1412;-79
2021/01/14 12:49:06;;;;;;;;;;;;;;;;;;5054008;28;849;-81
2021/01/14 12:51:32;;;;;;;;;;;;;;;;;;5053965;28;876;-79
2021/01/14 12:53:57;;;;;;;;;;;;;;;;;;5052675;28;821;-78
2021/01/14 12:56:23;;;;;;;;;;;;;;;;;;5052514;28;1345;-79
2021/01/14 12:58:48;;;;;;;;;;;;;;;;;;5053758;28;878;-79
2021/01/14 13:01:13;;;;;;;;;;;;;;;;;;5052399;28;1303;-78
2021/01/14 13:03:38;;;;;;;;;;;;;;;;;;5052312;28;1890;-78
2021/01/14 13:06:04;;;;;;;;;;;;;;;;;;5053775;28;1326;-79
2021/01/14 13:08:29;;;;;;;;;;;;;;;;;;5053978;28;915;-79
2021/01/14 13:10:54;;;;;;;;;;;;;;;;;;5054014;28;789;-80
2021/01/14 13:13:20;;;;;;;;;;;;;;;;;;5056410;28;877;-78
2021/01/14 13:15:45;;;;;;;;;;;;;;;;;;5057140;28;1314;-77
2021/01/14 13:18:10;;;;;;;;;;;;;;;;;;5057416;28;948;-79
2021/01/14 13:20:35;;;;;;;;;;;;;;;;;;5056167;28;1249;-79
2021/01/14 13:23:00;;;;;;;;;;;;;;;;;;5057167;28;1898;-76
2021/01/14 13:25:26;;;;;;;;;;;;;;;;;;5057079;28;1330;-77
2021/01/14 13:27:51;;;;;;;;;;;;;;;;;;5056120;28;1601;-79
2021/01/14 13:30:17;;;;;;;;;;;;;;;;;;5057141;28;905;-76
2021/01/14 13:32:42;;;;;;;;;;;;;;;;;;5057085;28;813;-77
2021/01/14 13:35:07;;;;;;;;;;;;;;;;;;5057157;28;1305;-76
2021/01/14 13:37:33;;;;;;;;;;;;;;;;;;5056935;28;917;-78
2021/01/14 13:39:58;;;;;;;;;;;;;;;;;;5056856;28;892;-79
2021/01/14 13:42:24;;;;;;;;;;;;;;;;;;5056979;28;1898;-75
2021/01/14 13:44:49;;;;;;;;;;;;;;;;;;5056682;28;1357;-76
2021/01/14 13:47:15;;;;;;;;;;;;;;;;;;5055572;28;1348;-75
2021/01/14 13:49:40;;;;;;;;;;;;;;;;;;5055424;28;841;-77
2021/01/14 13:52:05;;;;;;;;;;;;;;;;;;5056520;28;857;-77
2021/01/14 13:54:31;;;;;;;;;;;;;;;;;;5056822;28;1317;-76
2021/01/14 13:56:56;;;;;;;;;;;;;;;;;;5056791;28;873;-76
2021/01/14 13:59:21;;;;;;;;;;;;;;;;;;5055417;28;1341;-75
2021/01/14 14:01:47;;;;;;;;;;;;;;;;;;5056309;28;1984;-78
2021/01/14 14:04:12;;;;;;;;;;;;;;;;;;5056225;28;818;-76
2021/01/14 14:06:39;;;;;;;;;;;;;;;;;;5056462;28;1408;-78
2021/01/14 14:09:05;;;;;;;;;;;;;;;;;;5055206;28;808;-78
2021/01/14 14:11:30;;;;;;;;;;;;;;;;;;5056245;28;802;-76
2021/01/14 14:13:56;;;;;;;;;;;;;;;;;;5056307;28;822;-77
2021/01/14 14:16:21;;;;;;;;;;;;;;;;;;5054994;28;1803;-76
2021/01/14 14:18:47;;;;;;;;;;;;;;;;;;5054960;28;826;-76
2021/01/14 14:21:13;;;;;;;;;;;;;;;;;;5055979;28;817;-77
2021/01/14 14:23:39;;;;;;;;;;;;;;;;;;5056941;28;1898;-76
2021/01/14 14:26:04;;;;;;;;;;;;;;;;;;5058978;28;1780;-77
2021/01/14 14:28:29;;;;;;;;;;;;;;;;;;5075797;28;1712;-76
2021/01/14 14:30:54;;;;;;;;;;;;;;;;;;5075754;28;928;-76
2021/01/14 14:33:20;;;;;;;;;;;;;;;;;;5075911;28;1691;-76
2021/01/14 14:35:45;;;;;;;;;;;;;;;;;;5075742;28;1313;-75
2021/01/14 14:38:10;;;;;;;;;;;;;;;;;;5074882;28;1673;-77
2021/01/14 14:40:35;;;;;;;;;;;;;;;;;;5075777;28;1607;-76
2021/01/14 14:43:01;;;;;;;;;;;;;;;;;;5074616;28;1889;-78
2021/01/14 14:45:26;;;;;;;;;;;;;;;;;;5075395;28;1310;-77
2021/01/14 14:47:51;;;;;;;;;;;;;;;;;;5074525;28;1246;-71
2021/01/14 14:50:17;;;;;;;;;;;;;;;;;;5075235;28;840;-71
2021/01/14 14:52:42;;;;;;;;;;;;;;;;;;5075466;28;1004;-72
2021/01/14 14:55:07;;;;;;;;;;;;;;;;;;5075542;28;1396;-74
2021/01/14 14:57:33;;;;;;;;;;;;;;;;;;5073939;28;842;-75
2021/01/14 14:59:58;;;;;;;;;;;;;;;;;;5075289;28;999;-75
2021/01/14 15:02:23;;;;;;;;;;;;;;;;;;5074285;28;1885;-72
2021/01/14 15:04:48;;;;;;;;;;;;;;;;;;5075212;28;1369;-71
2021/01/14 15:07:14;;;;;;;;;;;;;;;;;;5075143;28;892;-73
2021/01/14 15:09:39;;;;;;;;;;;;;;;;;;5075001;28;868;-71
2021/01/14 15:12:05;;;;;;;;;;;;;;;;;;5075181;28;857;-71
2021/01/14 15:14:30;;;;;;;;;;;;;;;;;;5073744;28;1361;-71
2021/01/14 15:16:55;;;;;;;;;;;;;;;;;;5075093;28;982;-71
2021/01/14 15:19:20;;;;;;;;;;;;;;;;;;5073839;28;1339;-71
2021/01/14 15:21:46;;;;;;;;;;;;;;;;;;5073750;28;1897;-71
2021/01/14 15:24:11;;;;;;;;;;;;;;;;;;5074997;28;976;-72
2021/01/14 15:26:36;;;;;;;;;;;;;;;;;;5074728;28;1376;-73
2021/01/14 15:29:01;;;;;;;;;;;;;;;;;;5073634;28;857;-70
2021/01/14 15:31:27;;;;;;;;;;;;;;;;;;5073303;28;1329;-72
2021/01/14 15:33:55;;;;;;;;;;;;;;;;;;5073095;28;928;-71
2021/01/14 15:36:20;;;;;;;;;;;;;;;;;;5074458;28;1270;-72
2021/01/14 15:38:46;;;;;;;;;;;;;;;;;;5074612;28;995;-73
2021/01/14 15:41:11;;;;;;;;;;;;;;;;;;5073041;28;1460;-71
2021/01/14 15:43:37;;;;;;;;;;;;;;;;;;5074629;28;1961;-73
2021/01/14 15:46:02;;;;;;;;;;;;;;;;;;5074377;28;1349;-71
2021/01/14 15:48:28;;;;;;;;;;;;;;;;;;5073489;28;806;-74
2021/01/14 15:50:53;;;;;;;;;;;;;;;;;;5073412;28;1108;-73
2021/01/14 15:53:19;;;;;;;;;;;;;;;;;;5072834;28;927;-72
2021/01/14 15:55:45;;;;;;;;;;;;;;;;;;5074388;28;1301;-73
2021/01/14 15:58:10;;;;;;;;;;;;;;;;;;5074595;28;821;-73
2021/01/14 16:00:35;;;;;;;;;;;;;;;;;;5074393;28;881;-71
2021/01/14 16:03:00;;;;;;;;;;;;;;;;;;5074377;28;1894;-73
2021/01/14 16:05:26;;;;;;;;;;;;;;;;;;5073978;28;1258;-70
2021/01/14 16:07:51;;;;;;;;;;;;;;;;;;5074296;28;920;-73
2021/01/14 16:10:16;;;;;;;;;;;;;;;;;;5072873;28;907;-72
2021/01/14 16:12:43;;;;;;;;;;;;;;;;;;5073011;28;1234;-70
2021/01/14 16:15:09;;;;;;;;;;;;;;;;;;5074113;28;1364;-73
2021/01/14 16:17:34;;;;;;;;;;;;;;;;;;5074059;28;933;-71
2021/01/14 16:19:59;;;;;;;;;;;;;;;;;;5072628;28;1550;-71
2021/01/14 16:22:25;;;;;;;;;;;;;;;;;;5074318;28;1902;-72
2021/01/14 16:24:50;;;;;;;;;;;;;;;;;;5072658;28;1392;-73
2021/01/14 16:27:16;;;;;;;;;;;;;;;;;;5074280;28;904;-71
2021/01/14 16:29:41;;;;;;;;;;;;;;;;;;5073868;28;888;-71
2021/01/14 16:32:06;;;;;;;;;;;;;;;;;;5073142;28;1207;-73
2021/01/14 16:34:32;;;;;;;;;;;;;;;;;;5073751;28;1487;-72
2021/01/14 16:36:59;;;;;;;;;;;;;;;;;;5072877;28;1405;-72
2021/01/14 16:39:24;;;;;;;;;;;;;;;;;;5074258;28;936;-71
2021/01/14 16:41:54;;;;;;;;;;;;;;;;;;5073512;28;1910;-71
2021/01/14 16:44:20;;;;;;;;;;;;;;;;;;5072224;28;1206;-71
2021/01/14 16:46:45;;;;;;;;;;;;;;;;;;5077827;28;1345;-73
2021/01/14 16:49:10;;;;;;;;;;;;;;;;;;5076475;28;1697;-74
2021/01/14 16:51:35;;;;;;;;;;;;;;;;;;5076622;28;1330;-72
2021/01/14 16:54:01;;;;;;;;;;;;;;;;;;5077684;28;801;-72
2021/01/14 16:56:26;;;;;;;;;;;;;;;;;;5076514;28;1413;-71
2021/01/14 16:58:52;;;;;;;;;;;;;;;;;;5076440;28;1206;-72
2021/01/14 17:01:18;;;;;;;;;;;;;;;;;;5076118;28;1490;-73
2021/01/14 17:03:44;;;;;;;;;;;;;;;;;;5077347;28;1948;-72
2021/01/14 17:06:13;;;;;;;;;;;;;;;;;;5077613;28;1404;-71
2021/01/14 17:08:38;;;;;;;;;;;;;;;;;;5076654;28;1210;-73
2021/01/14 17:11:03;;;;;;;;;;;;;;;;;;5077564;28;980;-72